Time;durP1;ratioP1;P1;durP2;ratioP2;P2;SDS_P1;SDS_P2;PMS_P1;PMS_P2;Temp;Humidity;BMP_temperature;BMP_pressure;BME280_temperature;BME280_humidity;BME280_pressure;Samples;Min_cycle;Max_cycle;Signal;HPM_P1;HPM_P2
2022/09/05 00:00:00;;;;;;;2.67;1.80;;;;;;;19.07;100.00;99469.69;5129461;27;20259;-79
2022/09/05 00:02:50;;;;;;;4.97;2.10;;;;;;;19.11;100.00;99470.28;5122978;27;20190;-80
2022/09/05 00:05:29;;;;;;;2.13;1.93;;;;;;;19.05;100.00;99473.53;5076817;28;20205;-79
2022/09/05 00:08:17;;;;;;;5.43;2.40;;;;;;;19.13;100.00;99466.44;5127852;27;20205;-79
2022/09/05 00:10:58;;;;;;;4.50;2.17;;;;;;;18.97;100.00;99468.88;5097883;28;20217;-79
2022/09/05 00:13:57;;;;;;;2.53;2.10;;;;;;;19.06;100.00;99459.94;5131778;28;20796;-79
2022/09/05 00:16:46;;;;;;;4.30;1.90;;;;;;;18.86;100.00;99471.72;5050287;28;20212;-79
2022/09/05 00:19:29;;;;;;;3.90;2.00;;;;;;;18.73;100.00;99472.03;4977298;28;20225;-80
2022/09/05 00:22:29;;;;;;;3.60;1.93;;;;;;;18.70;100.00;99474.13;5030365;28;20201;-79
2022/09/05 00:25:35;;;;;;;6.50;2.27;;;;;;;18.53;100.00;99468.47;5030879;28;20727;-79
2022/09/05 00:28:15;;;;;;;7.13;2.60;;;;;;;18.48;100.00;99483.28;4952555;29;20200;-79
2022/09/05 00:31:23;;;;;;;3.13;2.30;;;;;;;18.59;100.00;99477.75;4953732;28;20216;-79
2022/09/05 00:34:26;;;;;;;4.43;2.50;;;;;;;18.58;100.00;99474.25;4976170;28;20202;-80
2022/09/05 00:37:27;;;;;;;2.90;2.50;;;;;;;18.74;100.00;99481.75;4933148;29;20211;-79
2022/09/05 00:40:13;;;;;;;3.00;2.50;;;;;;;18.47;100.00;99469.03;4935803;29;20715;-79
2022/09/05 00:42:52;;;;;;;3.40;2.20;;;;;;;18.51;100.00;99477.63;4937392;29;20699;-79
2022/09/05 00:45:28;;;;;;;3.60;2.90;;;;;;;18.40;100.00;99475.06;4951598;28;20280;-79
2022/09/05 00:48:14;;;;;;;3.33;2.67;;;;;;;18.50;100.00;99474.09;5011900;28;20286;-79
2022/09/05 00:50:57;;;;;;;4.30;2.83;;;;;;;18.55;100.00;99471.84;5010381;28;20230;-79
2022/09/05 00:53:37;;;;;;;3.40;2.63;;;;;;;18.51;100.00;99474.94;5010842;28;20191;-79
2022/09/05 00:56:19;;;;;;;3.10;2.37;;;;;;;18.60;100.00;99476.78;4956403;28;20294;-79
2022/09/05 00:59:30;;;;;;;3.40;2.50;;;;;;;18.61;100.00;99465.06;4973003;28;20199;-80
2022/09/05 01:02:07;;;;;;;3.70;2.10;;;;;;;18.48;100.00;99472.53;4975318;28;20267;-79
2022/09/05 01:04:49;;;;;;;3.70;2.40;;;;;;;18.37;100.00;99470.84;4967187;28;20679;-80
2022/09/05 01:07:48;;;;;;;3.50;2.47;;;;;;;18.26;100.00;99463.78;4995663;28;20231;-79
2022/09/05 01:10:31;;;;;;;2.87;2.27;;;;;;;18.16;100.00;99478.16;5074195;28;20276;-79
2022/09/05 01:13:25;;;;;;;2.60;2.23;;;;;;;18.07;100.00;99474.47;5011661;28;20277;-79
2022/09/05 01:16:02;;;;;;;3.97;2.90;;;;;;;18.04;100.00;99472.06;5014072;28;20194;-79
2022/09/05 01:18:50;;;;;;;3.60;2.93;;;;;;;18.00;100.00;99478.69;5010847;28;20281;-79
2022/09/05 01:21:39;;;;;;;2.47;2.27;;;;;;;18.08;100.00;99473.50;5041291;28;20223;-79
2022/09/05 01:24:27;;;;;;;3.47;2.63;;;;;;;17.95;100.00;99483.59;5037972;28;20193;-80
2022/09/05 01:27:29;;;;;;;3.33;2.40;;;;;;;17.94;100.00;99474.72;5048548;28;20211;-79
2022/09/05 01:30:23;;;;;;;4.10;2.70;;;;;;;17.99;100.00;99471.63;5056561;28;20197;-79
2022/09/05 01:33:09;;;;;;;2.40;2.20;;;;;;;17.93;100.00;99469.50;5055858;28;20204;-79
2022/09/05 01:36:15;;;;;;;3.27;2.43;;;;;;;17.67;100.00;99463.75;5054205;28;20211;-79
2022/09/05 01:38:57;;;;;;;2.50;2.30;;;;;;;17.81;100.00;99465.22;5100493;28;20192;-79
2022/09/05 01:41:55;;;;;;;3.90;2.30;;;;;;;17.71;100.00;99468.72;5098677;28;20245;-79
2022/09/05 01:44:40;;;;;;;3.10;2.53;;;;;;;17.65;100.00;99458.50;5096014;28;20203;-80
2022/09/05 01:47:26;;;;;;;2.73;2.40;;;;;;;17.70;100.00;99458.16;5100832;28;20202;-80
2022/09/05 01:50:20;;;;;;;2.50;2.30;;;;;;;17.62;100.00;99456.13;5097426;28;20231;-79
2022/09/05 01:53:08;;;;;;;4.60;2.80;;;;;;;17.52;100.00;99457.06;5097195;28;20247;-79
2022/09/05 01:55:54;;;;;;;3.73;2.47;;;;;;;17.47;100.00;99468.19;5096549;28;20209;-80
2022/09/05 01:58:55;;;;;;;3.80;2.70;;;;;;;17.33;100.00;99468.53;5096714;28;20674;-79
2022/09/05 02:01:31;;;;;;;3.03;2.73;;;;;;;17.36;100.00;99469.09;5092509;28;20223;-80
2022/09/05 02:04:32;;;;;;;4.40;2.93;;;;;;;17.40;100.00;99457.16;5092391;28;20195;-79
2022/09/05 02:07:15;;;;;;;4.80;3.10;;;;;;;17.24;100.00;99458.63;5093462;28;20674;-79
2022/09/05 02:10:28;;;;;;;2.67;2.43;;;;;;;17.43;100.00;99461.41;5095401;28;20278;-79
2022/09/05 02:13:10;;;;;;;4.03;2.50;;;;;;;17.42;100.00;99462.38;5092833;28;20290;-79
2022/09/05 02:15:45;;;;;;;3.60;2.80;;;;;;;17.28;100.00;99463.59;5097735;27;20244;-79
2022/09/05 02:18:31;;;;;;;3.23;2.60;;;;;;;17.13;100.00;99462.22;5091483;28;20241;-79
2022/09/05 02:21:02;;;;;;;5.03;2.90;;;;;;;17.10;100.00;99462.50;5097086;28;20222;-79
2022/09/05 02:26:33;;;;;;;5.13;3.50;;;;;;;17.16;100.00;99451.25;5131630;27;21032;-80
2022/09/05 02:29:07;;;;;;;3.07;2.77;;;;;;;16.94;100.00;99462.13;5127003;27;20197;-80
2022/09/05 02:31:45;;;;;;;4.67;3.40;;;;;;;17.07;100.00;99454.72;5125888;27;20194;-80
2022/09/05 02:34:22;;;;;;;3.30;3.00;;;;;;;17.03;100.00;99454.16;5125531;28;20186;-80
2022/09/05 02:37:01;;;;;;;3.57;2.93;;;;;;;17.01;100.00;99455.25;5106196;28;20205;-80
2022/09/05 02:39:39;;;;;;;3.43;2.70;;;;;;;16.97;100.00;99443.13;5126891;28;20645;-80
2022/09/05 02:42:37;;;;;;;3.47;2.60;;;;;;;17.07;100.00;99438.66;5131039;27;20252;-80
2022/09/05 02:45:41;;;;;;;3.27;2.80;;;;;;;17.16;100.00;99446.75;5131062;27;20240;-80
2022/09/05 02:48:22;;;;;;;3.43;3.10;;;;;;;17.15;100.00;99449.56;5052255;28;20236;-80
2022/09/05 02:51:01;;;;;;;3.97;2.97;;;;;;;17.09;100.00;99444.75;5108288;28;20278;-80
2022/09/05 02:53:53;;;;;;;3.60;2.57;;;;;;;16.68;100.00;99446.44;5108344;28;20206;-80
2022/09/05 02:56:56;;;;;;;6.53;3.40;;;;;;;16.67;100.00;99442.03;5108294;28;20199;-80
2022/09/05 03:00:01;;;;;;;3.63;2.77;;;;;;;16.78;100.00;99447.34;5108236;28;20199;-80
2022/09/05 03:02:37;;;;;;;3.57;3.23;;;;;;;16.61;100.00;99453.28;5103595;28;20195;-80
2022/09/05 03:05:14;;;;;;;3.97;3.27;;;;;;;16.46;100.00;99455.41;5101082;28;20276;-80
2022/09/05 03:08:08;;;;;;;3.67;3.07;;;;;;;16.52;100.00;99452.22;5054563;28;20210;-80
2022/09/05 03:11:20;;;;;;;3.43;3.07;;;;;;;16.50;100.00;99458.66;5101594;28;20227;-80
2022/09/05 03:14:24;;;;;;;4.27;2.83;;;;;;;16.65;100.00;99459.22;5102003;28;20207;-80
2022/09/05 03:17:23;;;;;;;4.00;2.97;;;;;;;16.52;100.00;99465.59;5107788;28;20245;-80
2022/09/05 03:20:31;;;;;;;3.40;3.10;;;;;;;16.68;100.00;99467.84;5085646;28;20271;-80
2022/09/05 03:23:34;;;;;;;3.77;3.40;;;;;;;16.57;100.00;99460.69;5078123;28;20659;-80
2022/09/05 03:26:50;;;;;;;3.50;3.20;;;;;;;16.35;100.00;99466.13;5085449;28;20250;-80
2022/09/05 03:29:49;;;;;;;3.50;3.20;;;;;;;16.21;100.00;99472.63;5084290;28;20199;-79
2022/09/05 03:33:07;;;;;;;3.90;3.43;;;;;;;16.18;100.00;99477.38;5097758;28;20195;-80
2022/09/05 03:36:12;;;;;;;3.50;3.17;;;;;;;16.00;100.00;99472.53;5100726;28;20199;-80
2022/09/05 03:39:08;;;;;;;4.00;3.40;;;;;;;15.98;100.00;99476.31;5091401;28;20190;-80
2022/09/05 03:41:54;;;;;;;3.77;3.37;;;;;;;15.91;100.00;99480.47;5079800;28;20207;-80
2022/09/05 03:44:44;;;;;;;4.37;3.40;;;;;;;16.03;100.00;99476.81;5116259;28;20210;-80
2022/09/05 03:47:31;;;;;;;3.40;3.10;;;;;;;16.09;100.00;99478.13;5115652;28;20199;-80
2022/09/05 03:50:24;;;;;;;3.93;3.40;;;;;;;16.15;100.00;99483.81;5114158;28;20279;-80
2022/09/05 03:53:41;;;;;;;4.53;3.40;;;;;;;16.09;100.00;99484.31;5115908;28;20218;-80
2022/09/05 03:56:53;;;;;;;3.73;3.33;;;;;;;16.12;100.00;99486.75;5053127;28;20201;-80
2022/09/05 04:00:06;;;;;;;4.07;3.17;;;;;;;16.14;100.00;99486.63;4986407;28;20230;-80
2022/09/05 04:02:58;;;;;;;4.97;3.67;;;;;;;16.07;100.00;99480.91;4972751;28;20206;-81
2022/09/05 04:05:56;;;;;;;3.80;3.37;;;;;;;15.86;100.00;99482.66;4974064;28;20229;-80
2022/09/05 04:08:50;;;;;;;5.20;3.60;;;;;;;15.71;100.00;99476.72;4974504;28;20239;-80
2022/09/05 04:11:31;;;;;;;3.97;3.40;;;;;;;15.66;100.00;99469.09;4971787;28;20272;-80
2022/09/05 04:14:02;;;;;;;3.70;3.30;;;;;;;15.64;100.00;99475.53;4983486;28;20353;-80
2022/09/05 04:16:42;;;;;;;4.60;3.40;;;;;;;15.69;100.00;99476.00;5045019;28;20197;-80
2022/09/05 04:19:20;;;;;;;4.50;3.20;;;;;;;15.66;100.00;99477.09;5051428;28;20223;-79
2022/09/05 04:21:57;;;;;;;5.23;3.57;;;;;;;15.66;100.00;99473.59;5042731;28;20193;-79
2022/09/05 04:24:31;;;;;;;3.60;3.30;;;;;;;15.69;100.00;99473.34;5049515;28;20300;-79
2022/09/05 04:27:20;;;;;;;3.70;3.40;;;;;;;15.81;100.00;99476.84;5098022;28;20225;-79
2022/09/05 04:30:00;;;;;;;5.13;3.53;;;;;;;15.69;100.00;99476.00;5110813;28;20206;-79
2022/09/05 04:32:49;;;;;;;4.10;3.70;;;;;;;15.73;100.00;99483.66;5114608;28;20187;-78
2022/09/05 04:35:30;;;;;;;3.67;3.37;;;;;;;15.91;100.00;99481.31;5109479;28;20213;-78
2022/09/05 04:38:10;;;;;;;4.47;3.70;;;;;;;15.81;100.00;99476.84;5075975;28;20191;-80
2022/09/05 04:40:43;;;;;;;4.07;3.67;;;;;;;15.79;100.00;99487.66;5113779;27;20195;-78
2022/09/05 04:43:25;;;;;;;4.17;3.63;;;;;;;15.84;100.00;99488.13;5068537;28;20287;-81
2022/09/05 04:46:00;;;;;;;4.40;3.40;;;;;;;15.70;100.00;99488.38;5069495;28;20226;-81
2022/09/05 04:48:36;;;;;;;4.80;3.37;;;;;;;15.67;100.00;99496.66;5062447;28;20216;-79
2022/09/05 04:51:08;;;;;;;4.00;3.60;;;;;;;15.74;100.00;99498.72;5066783;28;20211;-78
2022/09/05 04:54:08;;;;;;;4.27;3.50;;;;;;;15.88;100.00;99505.59;5067739;28;20191;-81
2022/09/05 04:56:41;;;;;;;4.20;3.40;;;;;;;15.83;100.00;99498.94;5069447;28;20667;-78
2022/09/05 04:59:16;;;;;;;4.90;3.40;;;;;;;15.85;100.00;99503.19;5072024;28;20207;-81
2022/09/05 05:02:14;;;;;;;5.40;3.43;;;;;;;15.87;100.00;99509.25;5105545;28;20202;-81
2022/09/05 05:05:06;;;;;;;4.30;3.70;;;;;;;15.78;100.00;99510.00;5113780;28;20199;-81
2022/09/05 05:07:59;;;;;;;5.93;3.50;;;;;;;15.81;100.00;99517.75;5031883;28;20232;-79
2022/09/05 05:10:39;;;;;;;5.27;3.67;;;;;;;15.73;100.00;99517.53;5046657;28;20275;-78
2022/09/05 05:13:34;;;;;;;4.33;3.87;;;;;;;15.88;100.00;99526.97;5051796;28;20209;-78
2022/09/05 05:16:25;;;;;;;5.93;4.07;;;;;;;15.74;100.00;99532.59;5051688;28;20205;-78
2022/09/05 05:19:19;;;;;;;4.07;3.53;;;;;;;15.81;100.00;99527.59;5050213;28;20201;-79
2022/09/05 05:21:53;;;;;;;6.00;3.90;;;;;;;15.92;100.00;99528.44;4992196;28;20195;-78
2022/09/05 05:24:26;;;;;;;4.40;3.70;;;;;;;15.99;100.00;99534.97;4988716;28;20239;-78
2022/09/05 05:27:04;;;;;;;5.73;3.77;;;;;;;16.01;100.00;99529.50;4989483;28;20234;-78
2022/09/05 05:29:43;;;;;;;5.67;4.03;;;;;;;16.09;100.00;99537.75;4972310;28;20231;-78
2022/09/05 05:32:20;;;;;;;5.70;4.10;;;;;;;16.06;100.00;99539.84;4951391;28;20206;-78
2022/09/05 05:35:11;;;;;;;4.30;3.83;;;;;;;16.14;100.00;99534.72;4991049;28;20198;-78
2022/09/05 05:37:45;;;;;;;6.00;4.00;;;;;;;16.20;100.00;99539.56;4959300;28;20195;-78
2022/09/05 05:40:24;;;;;;;7.20;3.90;;;;;;;16.34;100.00;99541.13;5019859;28;20224;-80
2022/09/05 05:43:27;;;;;;;5.67;4.03;;;;;;;16.38;100.00;99548.75;5051336;28;20231;-80
2022/09/05 05:46:01;;;;;;;6.63;4.17;;;;;;;16.23;100.00;99550.88;5047691;28;20221;-80
2022/09/05 05:48:36;;;;;;;7.90;4.40;;;;;;;16.11;100.00;99543.81;5049018;28;20197;-80
2022/09/05 05:51:34;;;;;;;6.63;4.27;;;;;;;16.21;100.00;99547.47;5093489;28;20203;-80
2022/09/05 05:54:27;;;;;;;9.40;4.80;;;;;;;16.23;100.00;99544.69;5113348;28;20195;-80
2022/09/05 05:57:35;;;;;;;7.63;4.00;;;;;;;16.21;100.00;99547.47;5113442;28;20191;-80
2022/09/05 06:00:17;;;;;;;6.97;4.47;;;;;;;16.41;100.00;99553.88;5110049;28;20199;-80
2022/09/05 06:03:28;;;;;;;5.83;4.57;;;;;;;16.52;100.00;99553.00;5114373;27;20220;-81
2022/09/05 06:06:45;;;;;;;7.77;5.10;;;;;;;16.74;100.00;99549.41;5115838;27;20226;-81
2022/09/05 06:09:50;;;;;;;7.20;4.60;;;;;;;16.82;100.00;99538.94;5102968;28;20258;-79
2022/09/05 06:13:06;;;;;;;6.73;4.93;;;;;;;16.85;100.00;99547.53;5111288;28;20203;-81
2022/09/05 06:16:22;;;;;;;8.90;4.70;;;;;;;17.05;100.00;99545.84;5111419;28;20194;-81
2022/09/05 06:19:29;;;;;;;7.67;5.03;;;;;;;17.08;100.00;99553.66;5103646;28;20203;-81
2022/09/05 06:22:55;;;;;;;5.90;4.20;;;;;;;17.31;100.00;99546.31;5111259;28;20256;-80
2022/09/05 06:25:56;;;;;;;6.00;4.93;;;;;;;17.41;100.00;99547.22;5111013;28;20328;-81
2022/09/05 06:28:34;;;;;;;8.37;4.70;;;;;;;17.54;100.00;99548.84;5074663;28;20198;-81
2022/09/05 06:31:23;;;;;;;4.40;4.00;;;;;;;17.72;100.00;99553.47;5109080;28;20203;-81
2022/09/05 06:34:21;;;;;;;5.13;4.30;;;;;;;17.92;100.00;99545.53;5111829;28;20209;-81
2022/09/05 06:37:15;;;;;;;6.17;4.30;;;;;;;18.04;100.00;99541.75;5112470;28;20267;-81
2022/09/05 06:40:02;;;;;;;6.43;4.40;;;;;;;18.14;100.00;99550.66;5114219;27;20197;-80
2022/09/05 06:42:44;;;;;;;6.67;4.10;;;;;;;18.28;100.00;99547.63;5102184;28;20203;-80
2022/09/05 06:45:31;;;;;;;7.07;4.03;;;;;;;18.46;100.00;99536.22;5112858;28;20202;-81
2022/09/05 06:48:11;;;;;;;6.73;4.50;;;;;;;18.59;100.00;99536.78;5085814;28;20215;-80
2022/09/05 06:51:08;;;;;;;5.03;3.80;;;;;;;18.73;100.00;99538.28;5090789;28;20188;-81
2022/09/05 06:54:03;;;;;;;4.30;3.50;;;;;;;18.94;100.00;99538.97;5083489;28;20192;-81
2022/09/05 06:57:03;;;;;;;3.63;3.13;;;;;;;18.93;100.00;99531.06;5087581;28;20202;-81
2022/09/05 06:59:59;;;;;;;5.40;3.40;;;;;;;19.14;100.00;99529.06;5027020;28;20393;-81
2022/09/05 07:02:34;;;;;;;5.10;3.87;;;;;;;19.35;100.00;99534.25;5030501;28;20681;-81
2022/09/05 07:05:36;;;;;;;5.97;3.27;;;;;;;19.48;100.00;99529.38;5039309;28;20207;-81
2022/09/05 07:08:25;;;;;;;6.10;3.27;;;;;;;19.68;100.00;99527.50;5068690;28;20219;-81
2022/09/05 07:11:09;;;;;;;5.07;3.40;;;;;;;19.91;100.00;99522.63;5068355;28;20192;-79
2022/09/05 07:14:08;;;;;;;4.37;2.80;;;;;;;20.08;100.00;99521.00;5072190;28;20703;-79
2022/09/05 07:16:47;;;;;;;6.13;3.30;;;;;;;20.35;100.00;99523.63;5058951;28;20212;-79
2022/09/05 07:19:25;;;;;;;5.00;3.20;;;;;;;20.54;100.00;99520.84;5115655;28;20201;-81
2022/09/05 07:22:17;;;;;;;6.23;3.40;;;;;;;20.63;100.00;99518.25;5107356;28;20210;-81
2022/09/05 07:25:09;;;;;;;5.70;3.27;;;;;;;20.91;100.00;99527.94;5116367;28;20229;-79
2022/09/05 07:27:45;;;;;;;7.33;2.97;;;;;;;20.73;100.00;99529.78;5080837;28;20870;-81
2022/09/05 07:30:35;;;;;;;6.30;3.57;;;;;;;21.06;100.00;99526.38;5116566;28;20199;-79
2022/09/05 07:33:05;;;;;;;8.10;2.67;;;;;;;21.32;100.00;99521.03;5112422;28;20302;-79
2022/09/05 07:35:35;;;;;;;4.27;2.40;;;;;;;21.45;100.00;99525.19;5116034;28;20203;-79
2022/09/05 07:38:15;;;;;;;8.73;5.00;;;;;;;21.51;100.00;99519.97;5118902;27;20191;-79
2022/09/05 07:40:53;;;;;;;5.47;2.97;;;;;;;21.76;100.00;99520.13;5111675;28;20190;-79
2022/09/05 07:43:26;;;;;;;2.30;1.73;;;;;;;21.97;100.00;99521.41;5112416;28;20278;-79
2022/09/05 07:46:10;;;;;;;3.33;2.00;;;;;;;22.28;100.00;99521.72;5079795;28;20199;-79
2022/09/05 07:48:43;;;;;;;2.05;1.85;;;;;;;22.29;100.00;99517.16;5114600;28;20211;-81
2022/09/05 07:51:19;;;;;;;3.42;1.85;;;;;;;22.56;100.00;99514.19;5115517;27;20199;-79
2022/09/05 07:54:18;;;;;;;2.17;1.93;;;;;;;22.65;100.00;99515.06;5115946;28;20208;-79
2022/09/05 07:57:08;;;;;;;4.03;2.28;;;;;;;22.53;100.00;99519.09;5053152;28;20248;-79
2022/09/05 08:00:10;;;;;;;3.77;1.90;;;;;;;22.69;100.00;99512.88;5053005;28;20279;-79
2022/09/05 08:02:58;;;;;;;4.00;1.90;;;;;;;22.84;100.00;99524.72;5051564;28;20283;-79
2022/09/05 08:05:36;;;;;;;6.43;2.00;;;;;;;22.96;100.00;99519.81;5052982;28;20189;-79
2022/09/05 08:08:10;;;;;;;4.15;1.80;;;;;;;23.32;100.00;99514.91;5049215;28;20290;-79
2022/09/05 08:10:46;;;;;;;2.63;1.95;;;;;;;23.35;100.00;99512.69;5052946;28;20263;-79
2022/09/05 08:13:54;;;;;;;3.70;1.60;;;;;;;23.66;100.00;99510.16;5053143;28;20193;-81
2022/09/05 08:16:43;;;;;;;2.20;2.00;;;;;;;23.73;100.00;99502.16;5115694;27;20198;-81
2022/09/05 08:19:39;;;;;;;3.78;1.90;;;;;;;23.89;100.00;99509.41;5113954;28;20199;-81
2022/09/05 08:22:17;;;;;;;2.67;1.70;;;;;;;23.96;100.00;99510.38;5073481;27;20293;-79
2022/09/05 08:24:54;;;;;;;3.20;1.77;;;;;;;23.86;100.00;99515.16;5115699;27;20656;-81
2022/09/05 08:27:36;;;;;;;1.55;1.40;;;;;;;24.22;100.00;99510.94;5106309;28;20222;-81
2022/09/05 08:30:09;;;;;;;5.10;1.80;;;;;;;24.33;100.00;99504.31;5113642;28;20282;-79
2022/09/05 08:32:59;;;;;;;1.80;1.70;;;;;;;24.34;100.00;99510.59;5113547;28;20194;-81
2022/09/05 08:35:43;;;;;;;2.28;1.50;;;;;;;24.49;100.00;99504.19;5072502;28;20188;-81
2022/09/05 08:38:14;;;;;;;1.85;1.45;;;;;;;24.76;100.00;99508.25;5055827;28;20204;-79
2022/09/05 08:40:51;;;;;;;1.83;1.40;;;;;;;24.66;100.00;99504.09;4996216;28;20719;-79
2022/09/05 08:43:33;;;;;;;1.75;1.48;;;;;;;24.89;100.00;99509.50;4992743;28;20209;-81
2022/09/05 08:46:32;;;;;;;2.53;1.70;;;;;;;25.07;100.00;99501.94;4954411;28;20208;-79
2022/09/05 08:49:40;;;;;;;2.53;1.75;;;;;;;25.20;100.00;99504.03;4952534;28;20224;-81
2022/09/05 08:52:27;;;;;;;1.50;1.40;;;;;;;25.22;100.00;99502.00;4949527;28;20414;-80
2022/09/05 08:55:06;;;;;;;1.92;1.60;;;;;;;25.34;99.46;99492.38;4969759;28;20212;-81
2022/09/05 08:58:04;;;;;;;2.55;1.70;;;;;;;25.31;100.00;99488.16;4969070;28;20211;-81
2022/09/05 09:00:45;;;;;;;1.75;1.40;;;;;;;25.33;97.62;99488.81;4969440;28;20203;-81
2022/09/05 09:03:31;;;;;;;1.70;1.55;;;;;;;25.50;94.84;99485.94;4977714;28;20260;-81
2022/09/05 09:06:52;;;;;;;1.65;1.50;;;;;;;25.66;94.03;99481.16;5087694;28;20222;-81
2022/09/05 09:09:48;;;;;;;1.70;1.58;;;;;;;25.94;91.80;99475.94;5071925;28;20220;-80
2022/09/05 09:12:52;;;;;;;1.77;1.52;;;;;;;26.07;90.82;99474.44;5069696;28;20279;-81
2022/09/05 09:15:28;;;;;;;1.73;1.63;;;;;;;26.13;87.86;99474.50;5115396;27;20267;-81
2022/09/05 09:17:59;;;;;;;1.73;1.50;;;;;;;26.28;85.32;99462.78;5111298;27;20195;-81
2022/09/05 09:20:51;;;;;;;2.85;1.45;;;;;;;26.48;83.55;99459.25;5114736;28;20201;-81
2022/09/05 09:23:41;;;;;;;2.72;1.60;;;;;;;26.50;81.76;99467.22;5111588;28;20228;-81
2022/09/05 09:26:15;;;;;;;1.85;1.38;;;;;;;26.68;80.95;99455.91;5115376;27;20231;-81
2022/09/05 09:28:52;;;;;;;2.25;1.17;;;;;;;26.78;82.08;99457.25;5113950;28;20301;-81
2022/09/05 09:31:36;;;;;;;2.22;1.40;;;;;;;26.77;82.56;99460.16;5107326;28;20197;-81
2022/09/05 09:34:21;;;;;;;1.60;1.50;;;;;;;26.73;81.56;99461.56;5111468;28;20191;-81
2022/09/05 09:37:18;;;;;;;2.80;1.30;;;;;;;26.68;79.34;99459.47;5108770;28;20199;-81
2022/09/05 09:40:27;;;;;;;2.08;1.40;;;;;;;26.76;77.28;99456.59;5111748;28;20668;-81
2022/09/05 09:43:01;;;;;;;3.47;1.40;;;;;;;27.03;74.67;99460.44;5106684;28;20201;-81
2022/09/05 09:45:55;;;;;;;1.95;1.30;;;;;;;27.20;75.53;99451.97;5045670;28;20243;-81
2022/09/05 09:49:03;;;;;;;1.42;1.33;;;;;;;26.69;77.48;99463.84;5050991;28;20224;-81
2022/09/05 09:52:05;;;;;;;2.28;1.48;;;;;;;27.15;75.51;99454.44;5050685;28;20408;-81
2022/09/05 09:55:25;;;;;;;3.28;1.40;;;;;;;27.39;72.53;99459.41;5046967;28;20197;-81
2022/09/05 09:58:18;;;;;;;1.63;1.52;;;;;;;27.08;72.32;99455.22;5048553;28;20201;-81
2022/09/05 10:00:52;;;;;;;2.75;1.52;;;;;;;27.44;71.06;99456.13;5047511;28;20197;-81
2022/09/05 10:03:54;;;;;;;1.90;1.58;;;;;;;27.97;67.39;99454.53;5082429;28;20195;-81
2022/09/05 10:07:03;;;;;;;1.75;1.40;;;;;;;28.29;66.37;99447.56;5111645;28;20210;-81
2022/09/05 10:10:12;;;;;;;1.60;1.40;;;;;;;28.24;65.59;99442.69;5112034;28;20223;-81
2022/09/05 10:13:24;;;;;;;3.08;1.60;;;;;;;28.54;64.59;99444.25;5113023;28;20256;-81
2022/09/05 10:16:30;;;;;;;2.78;1.30;;;;;;;28.65;64.62;99444.47;5110823;28;20198;-81
2022/09/05 10:19:27;;;;;;;2.38;1.60;;;;;;;28.63;62.83;99438.38;5084339;28;20217;-81
2022/09/05 10:22:43;;;;;;;1.50;1.40;;;;;;;28.94;63.44;99442.41;5112065;28;20252;-81
2022/09/05 10:25:42;;;;;;;1.30;1.20;;;;;;;28.48;60.44;99430.41;5101483;28;20234;-81
2022/09/05 10:28:35;;;;;;;1.63;1.52;;;;;;;28.80;60.34;99434.22;5112514;28;20260;-81
2022/09/05 10:31:14;;;;;;;3.13;1.50;;;;;;;27.65;66.84;99431.53;5110829;28;20670;-81
2022/09/05 10:34:16;;;;;;;2.63;1.45;;;;;;;28.10;65.59;99434.69;5111374;28;20280;-80
2022/09/05 10:37:10;;;;;;;1.90;1.50;;;;;;;28.13;65.38;99435.13;5112645;28;20218;-81
2022/09/05 10:39:57;;;;;;;3.30;1.58;;;;;;;28.53;63.46;99440.69;5111932;28;20205;-80
2022/09/05 10:42:36;;;;;;;2.05;1.50;;;;;;;28.40;64.36;99427.88;5112321;28;20186;-81
2022/09/05 10:45:30;;;;;;;2.15;1.45;;;;;;;28.19;65.33;99419.84;5112226;28;20194;-81
2022/09/05 10:48:12;;;;;;;2.47;1.95;;;;;;;28.79;63.42;99416.19;5114920;28;20219;-81
2022/09/05 10:50:46;;;;;;;3.30;1.55;;;;;;;28.94;61.57;99407.81;5069718;28;20218;-82
2022/09/05 10:53:28;;;;;;;12.25;9.30;;;;;;;29.71;58.99;99410.81;5070470;28;20288;-81
2022/09/05 10:56:13;;;;;;;2.53;1.50;;;;;;;29.97;56.88;99405.25;5071899;28;20203;-82
2022/09/05 10:58:51;;;;;;;1.70;1.42;;;;;;;29.64;56.89;99402.66;5071084;28;20226;-82
2022/09/05 11:01:47;;;;;;;2.13;1.48;;;;;;;29.46;58.00;99400.59;5035599;28;20211;-82
2022/09/05 11:04:47;;;;;;;2.08;1.55;;;;;;;28.03;63.77;99396.53;5073338;28;20219;-81
2022/09/05 11:07:21;;;;;;;2.35;1.42;;;;;;;28.84;60.21;99404.63;5068125;28;20193;-81
2022/09/05 11:10:04;;;;;;;3.42;1.33;;;;;;;28.57;61.19;99394.75;5067446;28;20224;-80
2022/09/05 11:13:05;;;;;;;1.50;1.40;;;;;;;28.85;59.12;99394.56;5071344;28;20288;-81
2022/09/05 11:15:54;;;;;;;2.80;1.60;;;;;;;29.05;58.70;99396.28;5099206;28;20285;-81
2022/09/05 11:18:51;;;;;;;4.72;1.50;;;;;;;29.52;56.33;99388.81;5071166;28;20226;-81
2022/09/05 11:21:30;;;;;;;5.07;1.70;;;;;;;29.07;58.16;99390.59;5073880;28;20226;-81
2022/09/05 11:24:07;;;;;;;4.30;1.90;;;;;;;29.28;58.08;99384.06;5066118;28;20218;-81
2022/09/05 11:26:43;;;;;;;3.00;1.65;;;;;;;30.01;56.16;99390.09;5066418;28;20196;-81
2022/09/05 11:29:22;;;;;;;2.63;1.52;;;;;;;29.21;52.30;99373.13;5036275;28;20222;-81
2022/09/05 11:32:19;;;;;;;1.98;1.60;;;;;;;28.78;58.31;99378.22;5068476;28;20228;-81
2022/09/05 11:35:22;;;;;;;2.20;1.60;;;;;;;27.91;59.90;99376.38;5073645;28;20201;-80
2022/09/05 11:38:47;;;;;;;1.92;1.60;;;;;;;28.06;60.48;99378.94;5116632;28;20319;-80
2022/09/05 11:42:08;;;;;;;3.08;2.13;;;;;;;28.35;57.88;99383.22;5116526;28;20203;-81
2022/09/05 11:44:56;;;;;;;4.28;1.58;;;;;;;27.91;59.83;99373.66;5115887;28;20191;-81
2022/09/05 11:48:11;;;;;;;3.25;1.50;;;;;;;28.24;59.45;99362.84;5108797;28;20240;-81
2022/09/05 11:51:10;;;;;;;4.18;1.92;;;;;;;28.40;55.72;99364.38;5114273;28;20219;-81
2022/09/05 11:53:57;;;;;;;3.28;1.67;;;;;;;29.03;54.96;99362.88;5111947;28;20302;-81
2022/09/05 11:57:16;;;;;;;2.35;1.50;;;;;;;29.78;52.14;99357.00;5111411;28;20191;-81
2022/09/05 12:00:19;;;;;;;2.10;1.35;;;;;;;30.01;48.44;99356.47;5089876;28;20191;-82
2022/09/05 12:03:40;;;;;;;1.85;1.40;;;;;;;30.30;44.42;99358.63;5116673;27;20202;-82
2022/09/05 12:06:56;;;;;;;4.70;2.10;;;;;;;30.76;43.21;99347.34;5118192;27;20199;-82
2022/09/05 12:09:50;;;;;;;2.63;1.45;;;;;;;29.88;44.10;99363.69;5102925;27;20246;-82
2022/09/05 12:12:31;;;;;;;3.90;1.38;;;;;;;29.70;45.22;99357.25;5118264;27;20210;-81
2022/09/05 12:15:25;;;;;;;2.00;1.50;;;;;;;29.30;47.49;99357.38;5116525;27;20195;-81
2022/09/05 12:18:04;;;;;;;3.10;1.63;;;;;;;29.55;46.11;99352.91;5112884;28;20219;-82
2022/09/05 12:20:56;;;;;;;4.85;1.58;;;;;;;29.66;45.81;99353.28;5114220;27;20198;-81
2022/09/05 12:23:38;;;;;;;1.85;1.38;;;;;;;28.88;49.71;99348.63;5114784;28;20250;-80
2022/09/05 12:26:34;;;;;;;2.67;1.40;;;;;;;29.50;46.39;99341.78;5115562;28;20202;-81
2022/09/05 12:29:25;;;;;;;5.25;1.40;;;;;;;29.66;45.64;99336.91;5115705;28;20223;-81
2022/09/05 12:32:12;;;;;;;3.75;1.40;;;;;;;29.80;45.46;99330.31;5090679;28;20207;-81
2022/09/05 12:35:03;;;;;;;1.98;1.60;;;;;;;29.54;45.40;99334.88;5091456;28;20199;-81
2022/09/05 12:38:03;;;;;;;2.83;1.45;;;;;;;29.78;45.36;99341.47;5092824;28;20207;-81
2022/09/05 12:40:59;;;;;;;5.35;1.70;;;;;;;29.58;47.11;99322.44;5092561;28;20229;-81
2022/09/05 12:44:26;;;;;;;1.77;1.55;;;;;;;30.62;44.37;99321.16;5092657;28;20203;-82
2022/09/05 12:47:12;;;;;;;4.72;1.35;;;;;;;31.03;43.34;99312.34;5092056;28;20195;-81
2022/09/05 12:49:58;;;;;;;2.90;1.30;;;;;;;31.34;40.90;99318.75;5093400;28;20294;-82
2022/09/05 12:52:42;;;;;;;2.70;1.45;;;;;;;30.12;43.15;99317.56;5114211;28;20191;-82
2022/09/05 12:55:24;;;;;;;1.77;1.40;;;;;;;30.10;44.43;99320.47;5109423;28;20251;-81
2022/09/05 12:57:59;;;;;;;3.20;1.60;;;;;;;29.87;46.69;99318.31;5071750;28;20199;-81
2022/09/05 13:00:49;;;;;;;2.13;1.60;;;;;;;29.57;46.85;99328.97;5072129;28;20643;-81
2022/09/05 13:03:47;;;;;;;3.10;1.30;;;;;;;30.57;44.52;99314.66;5070667;28;20211;-81
2022/09/05 13:06:39;;;;;;;3.65;1.60;;;;;;;30.74;43.61;99302.13;5072109;28;20205;-82
2022/09/05 13:09:18;;;;;;;3.22;1.90;;;;;;;31.45;41.64;99292.50;5068340;28;20226;-82
2022/09/05 13:12:02;;;;;;;2.17;1.50;;;;;;;31.16;41.54;99286.72;5065334;28;20224;-81
2022/09/05 13:14:58;;;;;;;2.53;1.52;;;;;;;31.09;40.59;99294.19;5073386;28;20208;-81